createdAt,value
2022-12-22T00:02:35.528Z,3.63
2022-12-22T00:05:21.242Z,3.61
2022-12-22T00:08:07.029Z,3.63
2022-12-22T00:10:52.708Z,3.57
2022-12-22T00:13:38.494Z,3.54
2022-12-22T00:16:24.173Z,3.62
2022-12-22T00:19:09.401Z,3.64
2022-12-22T00:21:54.851Z,3.62
2022-12-22T00:24:40.143Z,3.68
2022-12-22T00:27:33.749Z,3.63
2022-12-22T00:30:19.823Z,3.71
2022-12-22T00:33:05.968Z,3.70
2022-12-22T00:35:52.284Z,3.77
2022-12-22T00:38:40.639Z,3.75
2022-12-22T00:41:26.174Z,3.84
2022-12-22T00:44:11.477Z,3.84
2022-12-22T00:47:01.139Z,3.82
2022-12-22T00:49:50.699Z,3.79
2022-12-22T00:52:39.428Z,3.76
2022-12-22T00:55:36.259Z,3.81
2022-12-22T00:58:25.358Z,3.77
2022-12-22T01:01:10.719Z,3.78
2022-12-22T01:03:56.545Z,3.74
2022-12-22T01:06:43.666Z,3.65
2022-12-22T01:09:29.144Z,3.52
2022-12-22T01:12:14.559Z,3.43
2022-12-22T01:15:00.088Z,3.33
2022-12-22T01:17:45.587Z,3.20
2022-12-22T01:20:31.460Z,3.23
2022-12-22T01:23:17.136Z,3.24
2022-12-22T01:26:03.017Z,3.22
2022-12-22T01:28:48.715Z,3.23
2022-12-22T01:31:45.962Z,3.22
2022-12-22T01:34:31.268Z,3.14
2022-12-22T01:37:16.742Z,3.20
2022-12-22T01:40:01.889Z,3.09
2022-12-22T01:42:50.091Z,2.94
2022-12-22T01:45:49.797Z,3.08
2022-12-22T01:48:38.508Z,3.11
2022-12-22T01:51:29.203Z,3.11
2022-12-22T01:54:16.572Z,3.11
2022-12-22T01:57:04.945Z,2.98
2022-12-22T01:59:50.764Z,3.06
2022-12-22T02:02:38.059Z,3.05
2022-12-22T02:05:26.514Z,3.05
2022-12-22T02:08:20.941Z,2.99
2022-12-22T02:11:43.795Z,2.94
2022-12-22T02:14:30.421Z,2.84
2022-12-22T02:17:37.044Z,2.71
2022-12-22T02:20:40.925Z,2.72
2022-12-22T02:23:40.962Z,2.76
2022-12-22T02:26:44.481Z,2.69
2022-12-22T02:29:32.497Z,2.62
2022-12-22T02:32:18.525Z,2.71
2022-12-22T02:35:04.034Z,2.72
2022-12-22T02:38:03.772Z,2.81
2022-12-22T02:41:11.599Z,2.87
2022-12-22T02:44:29.916Z,2.68
2022-12-22T02:47:28.083Z,2.80
2022-12-22T02:50:18.037Z,2.80
2022-12-22T02:53:06.301Z,2.86
2022-12-22T02:55:52.603Z,2.95
2022-12-22T02:58:38.407Z,2.97
2022-12-22T03:01:25.249Z,3.06
2022-12-22T03:04:10.987Z,3.23
2022-12-22T03:06:56.660Z,3.26
2022-12-22T03:09:42.242Z,3.19
2022-12-22T03:26:48.795Z,2.59
2022-12-22T03:29:15.788Z,2.76
2022-12-22T03:31:42.666Z,2.98
2022-12-22T03:34:09.530Z,3.12
2022-12-22T03:36:36.548Z,3.25
2022-12-22T03:39:03.845Z,3.34
2022-12-22T03:41:50.527Z,3.45
2022-12-22T03:44:36.124Z,3.52
2022-12-22T03:47:03.120Z,3.59
2022-12-22T03:49:30.165Z,3.50
2022-12-22T03:51:57.039Z,3.47
2022-12-22T03:54:26.002Z,3.50
2022-12-22T03:56:54.073Z,3.52
2022-12-22T03:59:21.286Z,3.63
2022-12-22T04:01:53.234Z,3.66
2022-12-22T04:04:23.167Z,3.56
2022-12-22T04:06:50.091Z,3.49
2022-12-22T04:09:17.327Z,3.43
2022-12-22T04:12:05.585Z,3.45
2022-12-22T04:14:34.600Z,3.45
2022-12-22T04:17:03.701Z,3.39
2022-12-22T04:19:31.489Z,3.46
2022-12-22T04:21:58.713Z,3.48
2022-12-22T04:24:25.636Z,3.45
2022-12-22T04:26:53.385Z,3.33
2022-12-22T04:29:20.341Z,3.24
2022-12-22T04:31:47.228Z,3.20
2022-12-22T04:34:14.220Z,3.13
2022-12-22T04:36:41.175Z,3.01
2022-12-22T04:39:08.272Z,2.98
2022-12-22T04:41:35.178Z,2.79
2022-12-22T04:44:02.240Z,2.74
2022-12-22T04:46:29.248Z,2.77
2022-12-22T04:48:59.994Z,2.80
2022-12-22T04:51:28.701Z,2.74
2022-12-22T04:53:55.949Z,2.64
2022-12-22T04:56:22.838Z,2.56
2022-12-22T04:58:49.689Z,2.51
2022-12-22T05:01:18.662Z,2.46
2022-12-22T05:03:46.814Z,2.42
2022-12-22T05:06:14.900Z,2.35
2022-12-22T05:08:41.759Z,2.24
2022-12-22T05:11:08.786Z,2.18
2022-12-22T05:13:35.728Z,2.22
2022-12-22T05:16:05.656Z,2.31
2022-12-22T05:18:34.040Z,2.36
2022-12-22T05:21:06.908Z,2.24
2022-12-22T05:23:33.900Z,2.31
2022-12-22T05:26:01.018Z,2.27
2022-12-22T05:28:27.943Z,2.21
2022-12-22T05:30:55.563Z,2.29
2022-12-22T05:33:22.433Z,2.41
2022-12-22T05:35:49.407Z,2.59
2022-12-22T05:38:16.419Z,2.73
2022-12-22T05:40:43.261Z,2.91
2022-12-22T05:43:10.404Z,3.01
2022-12-22T05:45:37.474Z,3.22
2022-12-22T05:48:05.507Z,3.44
2022-12-22T05:50:32.815Z,3.79
2022-12-22T05:53:05.611Z,4.08
2022-12-22T05:55:32.920Z,4.53
2022-12-22T05:58:02.081Z,5.04
2022-12-22T06:00:30.875Z,5.64
2022-12-22T06:02:58.152Z,5.99
2022-12-22T06:05:25.154Z,6.72
2022-12-22T06:07:52.387Z,7.03
2022-12-22T06:10:20.807Z,7.69
2022-12-22T06:12:47.691Z,8.00
2022-12-22T06:15:15.507Z,8.49
2022-12-22T06:17:45.203Z,9.26
2022-12-22T06:20:13.977Z,9.83
2022-12-22T06:22:40.903Z,10.54
2022-12-22T06:25:10.895Z,11.36
2022-12-22T06:27:42.711Z,12.65
2022-12-22T06:30:10.414Z,12.91
2022-12-22T06:32:38.220Z,13.56
2022-12-22T06:35:06.246Z,14.73
2022-12-22T06:37:33.136Z,15.79
2022-12-22T06:39:59.975Z,16.61
2022-12-22T06:42:45.463Z,16.08
2022-12-22T06:45:12.849Z,15.69
2022-12-22T06:47:39.815Z,16.40
2022-12-22T06:50:07.433Z,16.98
2022-12-22T06:52:34.289Z,17.59
2022-12-22T06:55:02.372Z,17.02
2022-12-22T06:57:29.701Z,17.78
2022-12-22T06:59:57.761Z,18.29
2022-12-22T07:02:25.585Z,18.94
2022-12-22T07:04:53.884Z,17.27
2022-12-22T07:07:20.877Z,16.01
2022-12-22T07:09:47.774Z,16.65
2022-12-22T07:12:14.581Z,15.10
2022-12-22T07:14:41.442Z,16.47
2022-12-22T07:17:09.245Z,17.38
2022-12-22T07:19:36.122Z,16.37
2022-12-22T07:22:03.022Z,15.53
2022-12-22T07:24:29.915Z,17.48
2022-12-22T07:26:56.992Z,16.64
2022-12-22T07:29:24.141Z,15.91
2022-12-22T07:31:51.075Z,15.11
2022-12-22T07:34:18.124Z,15.42
2022-12-22T07:36:44.969Z,14.92
2022-12-22T07:39:12.791Z,15.23
2022-12-22T07:41:58.776Z,15.21
2022-12-22T07:44:25.655Z,15.49
2022-12-22T07:46:52.671Z,15.72
2022-12-22T07:49:38.373Z,16.33
2022-12-22T07:52:05.323Z,15.98
2022-12-22T07:54:36.552Z,17.82
2022-12-22T07:57:06.547Z,20.40
2022-12-22T07:59:33.368Z,20.23
2022-12-22T08:02:00.434Z,20.54
2022-12-22T08:04:27.520Z,21.03
2022-12-22T08:06:55.203Z,21.38
2022-12-22T08:09:23.213Z,21.08
2022-12-22T08:11:50.463Z,19.81
2022-12-22T08:14:17.403Z,20.37
2022-12-22T08:16:44.411Z,21.66
2022-12-22T08:19:11.502Z,19.98
2022-12-22T08:21:39.050Z,19.90
2022-12-22T08:24:07.112Z,20.90
2022-12-22T08:26:39.719Z,20.61
2022-12-22T08:29:18.708Z,20.81
2022-12-22T08:31:45.885Z,22.28
2022-12-22T08:34:15.318Z,22.43
2022-12-22T08:36:46.520Z,21.82
2022-12-22T08:39:14.965Z,21.72
2022-12-22T08:41:50.829Z,20.93
2022-12-22T08:44:41.086Z,18.64
2022-12-22T08:47:13.146Z,19.24
2022-12-22T08:49:43.447Z,17.23
2022-12-22T08:52:16.004Z,18.63
2022-12-22T08:54:45.237Z,20.40
2022-12-22T08:57:12.155Z,20.80
2022-12-22T08:59:39.051Z,21.16
2022-12-22T09:02:06.214Z,17.80
2022-12-22T09:04:34.409Z,17.81
2022-12-22T09:07:02.789Z,18.12
2022-12-22T09:09:34.376Z,19.32
2022-12-22T09:12:03.092Z,20.70
2022-12-22T09:14:30.731Z,20.91
2022-12-22T09:16:57.744Z,16.96
2022-12-22T09:19:24.648Z,14.69
2022-12-22T09:21:51.560Z,13.27
2022-12-22T09:24:18.655Z,12.93
2022-12-22T09:26:45.654Z,12.94
2022-12-22T09:29:15.616Z,14.67
2022-12-22T09:31:43.673Z,16.32
2022-12-22T09:34:16.809Z,14.16
2022-12-22T09:36:45.108Z,15.16
2022-12-22T09:39:12.076Z,13.45
2022-12-22T09:41:52.648Z,15.65
2022-12-22T09:44:50.715Z,14.21
2022-12-22T09:47:36.089Z,15.05
2022-12-22T09:50:04.805Z,14.86
2022-12-22T09:52:34.758Z,14.88
2022-12-22T09:55:02.471Z,16.53
2022-12-22T09:57:31.912Z,13.67
2022-12-22T10:00:10.969Z,14.07
2022-12-22T10:02:48.053Z,13.40
2022-12-22T10:05:30.964Z,14.09
2022-12-22T10:08:15.322Z,15.81
2022-12-22T10:10:42.857Z,17.74
2022-12-22T10:13:18.383Z,18.70
2022-12-22T10:15:45.638Z,18.10
2022-12-22T10:18:25.602Z,18.14
2022-12-22T10:21:15.159Z,19.44
2022-12-22T10:23:48.727Z,19.90
2022-12-22T10:26:30.694Z,18.31
2022-12-22T10:29:03.985Z,17.86
2022-12-22T10:31:33.260Z,18.18
2022-12-22T10:34:15.504Z,19.02
2022-12-22T10:36:48.398Z,18.95
2022-12-22T10:39:23.214Z,20.54
2022-12-22T10:41:52.291Z,19.12
2022-12-22T10:44:22.747Z,18.41
2022-12-22T10:46:53.461Z,18.94
2022-12-22T10:49:25.432Z,20.56
2022-12-22T10:51:54.429Z,19.10
2022-12-22T10:54:36.277Z,19.67
2022-12-22T10:57:25.231Z,17.66
2022-12-22T11:00:03.139Z,21.01
2022-12-22T11:02:38.719Z,21.59
2022-12-22T11:05:09.042Z,21.17
2022-12-22T11:07:39.361Z,21.56
2022-12-22T11:10:33.855Z,21.47
2022-12-22T11:13:09.857Z,18.03
2022-12-22T11:15:44.028Z,16.95
2022-12-22T11:18:46.402Z,17.13
2022-12-22T11:21:24.420Z,18.19
2022-12-22T11:24:13.462Z,18.20
2022-12-22T11:26:55.332Z,19.63
2022-12-22T11:29:34.922Z,21.10
2022-12-22T11:32:13.863Z,19.85
2022-12-22T11:35:06.855Z,19.64
2022-12-22T11:37:48.716Z,19.01
2022-12-22T11:40:21.560Z,19.48
2022-12-22T11:43:23.883Z,17.64
2022-12-22T11:45:59.883Z,18.59
2022-12-22T11:48:36.608Z,19.48
2022-12-22T11:51:27.003Z,20.00
2022-12-22T11:54:36.600Z,19.97
2022-12-22T11:57:04.997Z,19.00
2022-12-22T11:59:34.523Z,18.76
2022-12-22T12:02:16.629Z,18.59
2022-12-22T12:05:15.986Z,17.14
2022-12-22T12:08:03.876Z,17.60
2022-12-22T12:10:44.912Z,17.65
2022-12-22T12:13:37.453Z,16.59
2022-12-22T12:16:18.505Z,17.23
2022-12-22T12:19:28.539Z,16.36
2022-12-22T12:21:58.992Z,15.60
2022-12-22T12:24:28.794Z,15.15
2022-12-22T12:26:58.425Z,15.74
2022-12-22T12:29:35.574Z,13.93
2022-12-22T12:32:11.549Z,13.39
2022-12-22T12:34:44.594Z,12.30
2022-12-22T12:37:37.822Z,10.74
2022-12-22T12:40:20.458Z,10.15
2022-12-22T12:42:48.993Z,9.70
2022-12-22T12:45:51.490Z,9.28
2022-12-22T12:48:21.134Z,9.32
2022-12-22T12:50:49.177Z,8.99
2022-12-22T12:53:17.923Z,8.75
2022-12-22T12:55:51.947Z,8.68
2022-12-22T12:58:39.913Z,8.75
2022-12-22T13:01:30.564Z,8.70
2022-12-22T13:04:05.906Z,8.71
2022-12-22T13:06:50.966Z,8.61
2022-12-22T13:12:34.832Z,8.55
2022-12-22T13:15:02.117Z,8.44
2022-12-22T13:17:53.580Z,8.44
2022-12-22T13:20:35.450Z,8.44
2022-12-22T13:23:10.508Z,8.38
2022-12-22T13:25:48.298Z,8.31
2022-12-22T13:28:17.064Z,8.31
2022-12-22T13:31:06.203Z,8.34
2022-12-22T13:33:39.095Z,8.31
2022-12-22T13:36:08.514Z,8.29
2022-12-22T13:38:37.747Z,8.20
2022-12-22T13:41:17.134Z,8.25
2022-12-22T13:43:53.430Z,8.27
2022-12-22T13:46:20.677Z,8.14
2022-12-22T13:48:55.279Z,8.08
2022-12-22T13:51:26.426Z,8.04
2022-12-22T13:54:08.588Z,8.04
2022-12-22T13:56:51.996Z,8.02
2022-12-22T13:59:26.799Z,7.99
2022-12-22T14:02:18.683Z,7.98
2022-12-22T14:05:09.131Z,7.94
2022-12-22T14:07:36.316Z,7.87
2022-12-22T14:10:04.450Z,7.88
2022-12-22T14:12:41.112Z,7.86
2022-12-22T14:15:16.964Z,7.80
2022-12-22T14:17:52.306Z,7.78
2022-12-22T14:20:24.983Z,7.70
2022-12-22T14:22:56.128Z,7.66
2022-12-22T14:25:44.853Z,7.55
2022-12-22T14:28:28.385Z,7.54
2022-12-22T14:31:00.179Z,7.50
2022-12-22T14:33:32.789Z,7.47
2022-12-22T14:36:11.802Z,7.45
2022-12-22T14:38:42.028Z,7.46
2022-12-22T14:41:43.157Z,7.40
2022-12-22T14:44:14.461Z,7.33
2022-12-22T14:46:42.771Z,7.39
2022-12-22T14:49:18.016Z,7.29
2022-12-22T14:52:00.982Z,7.21
2022-12-22T14:54:28.922Z,7.26
2022-12-22T14:57:08.527Z,7.25
2022-12-22T14:59:40.069Z,7.17
2022-12-22T15:02:39.615Z,7.17
2022-12-22T15:05:15.184Z,7.15
2022-12-22T15:08:08.303Z,7.16
2022-12-22T15:10:44.816Z,7.11
2022-12-22T15:13:18.432Z,7.12
2022-12-22T15:28:55.216Z,6.41
2022-12-22T15:31:22.374Z,6.58
2022-12-22T15:33:49.198Z,6.73
2022-12-22T15:36:16.187Z,6.74
2022-12-22T15:38:43.063Z,6.76
2022-12-22T15:41:09.874Z,6.84
2022-12-22T15:43:57.172Z,6.80
2022-12-22T15:46:24.820Z,6.83
2022-12-22T15:48:52.628Z,6.84
2022-12-22T15:51:28.578Z,6.79
2022-12-22T15:53:57.804Z,6.82
2022-12-22T15:56:27.616Z,6.84
2022-12-22T15:58:55.338Z,6.80
2022-12-22T16:01:22.498Z,6.80
2022-12-22T16:03:49.489Z,6.83
2022-12-22T16:06:19.680Z,6.80
2022-12-22T16:08:50.803Z,6.74
2022-12-22T16:11:17.879Z,6.74
2022-12-22T16:13:45.617Z,6.77
2022-12-22T16:16:12.549Z,6.80
2022-12-22T16:18:39.588Z,6.84
2022-12-22T16:21:33.145Z,6.88
2022-12-22T16:24:01.777Z,6.80
2022-12-22T16:26:28.912Z,6.81
2022-12-22T16:28:56.013Z,6.86
2022-12-22T16:31:24.690Z,6.78
2022-12-22T16:33:52.106Z,6.68
2022-12-22T16:36:19.099Z,6.67
2022-12-22T16:38:47.589Z,6.56
2022-12-22T16:41:25.542Z,6.60
2022-12-22T16:46:40.357Z,6.57
2022-12-22T16:49:09.247Z,6.27
2022-12-22T16:51:40.415Z,6.17
2022-12-22T16:54:07.450Z,6.21
2022-12-22T16:56:35.149Z,6.18
2022-12-22T16:59:04.637Z,6.22
2022-12-22T17:01:31.989Z,6.20
2022-12-22T17:04:03.763Z,6.03
2022-12-22T17:06:30.797Z,5.98
2022-12-22T17:08:57.897Z,5.88
2022-12-22T17:11:29.336Z,5.86
2022-12-22T17:14:03.887Z,5.76
2022-12-22T17:16:30.782Z,5.70
2022-12-22T17:18:57.756Z,5.67
2022-12-22T17:21:25.622Z,5.48
2022-12-22T17:23:55.055Z,5.49
2022-12-22T17:26:25.663Z,5.37
2022-12-22T17:28:53.352Z,5.38
2022-12-22T17:31:22.550Z,5.26
2022-12-22T17:33:49.668Z,5.24
2022-12-22T17:36:25.999Z,5.09
2022-12-22T17:38:54.299Z,5.07
2022-12-22T17:41:21.255Z,5.04
2022-12-22T17:43:48.142Z,5.04
2022-12-22T17:46:20.119Z,4.99
2022-12-22T17:48:47.856Z,4.83
2022-12-22T17:51:24.014Z,4.80
2022-12-22T17:53:52.575Z,4.70
2022-12-22T17:56:22.151Z,4.72
2022-12-22T17:58:50.037Z,4.75
2022-12-22T18:01:30.274Z,4.63
2022-12-22T18:03:58.197Z,4.67
2022-12-22T18:06:33.871Z,4.53
2022-12-22T18:09:01.612Z,4.57
2022-12-22T18:11:28.556Z,4.59
2022-12-22T18:13:57.497Z,4.57
2022-12-22T18:16:24.705Z,4.58
2022-12-22T18:18:51.835Z,4.60
2022-12-22T18:21:22.818Z,4.49
2022-12-22T18:23:51.307Z,4.43
2022-12-22T18:26:24.798Z,4.39
2022-12-22T18:28:52.115Z,4.47
2022-12-22T18:31:19.707Z,4.45
2022-12-22T18:33:46.789Z,4.46
2022-12-22T18:36:31.638Z,4.39
2022-12-22T18:38:59.348Z,4.37
2022-12-22T18:41:29.236Z,4.11
2022-12-22T18:43:56.126Z,4.13
2022-12-22T18:46:24.337Z,4.05
2022-12-22T18:48:51.337Z,4.06
2022-12-22T18:51:20.289Z,4.07
2022-12-22T18:53:48.385Z,4.05
2022-12-22T18:56:15.533Z,4.00
2022-12-22T18:58:42.762Z,3.96
2022-12-22T19:01:22.415Z,3.89
2022-12-22T19:03:51.224Z,3.92
2022-12-22T19:06:20.759Z,3.90
2022-12-22T19:08:49.034Z,3.94
2022-12-22T19:11:21.608Z,3.94
2022-12-22T19:13:51.264Z,3.92
2022-12-22T19:16:23.209Z,3.90
2022-12-22T19:18:50.147Z,3.84
2022-12-22T19:21:18.590Z,3.92
2022-12-22T19:23:46.049Z,3.87
2022-12-22T19:26:21.739Z,3.88
2022-12-22T19:28:57.323Z,3.71
2022-12-22T19:31:33.206Z,3.71
2022-12-22T19:34:04.383Z,3.66
2022-12-22T19:36:33.472Z,3.66
2022-12-22T19:39:04.582Z,3.70
2022-12-22T19:41:38.361Z,3.72
2022-12-22T19:44:16.110Z,3.67
2022-12-22T19:46:43.070Z,3.72
2022-12-22T19:49:19.168Z,3.68
2022-12-22T19:51:46.297Z,3.65
2022-12-22T19:54:13.793Z,3.68
2022-12-22T19:56:42.328Z,3.62
2022-12-22T19:59:38.557Z,3.60
2022-12-22T20:02:30.769Z,3.55
2022-12-22T20:04:58.812Z,3.50
2022-12-22T20:07:27.740Z,3.49
2022-12-22T20:09:54.677Z,3.46
2022-12-22T20:12:40.221Z,3.41
2022-12-22T20:15:38.065Z,3.31
2022-12-22T20:18:15.177Z,3.27
2022-12-22T20:20:43.041Z,3.25
2022-12-22T20:23:19.584Z,3.24
2022-12-22T20:25:58.798Z,3.23
2022-12-22T20:28:28.192Z,3.17
2022-12-22T20:30:56.177Z,3.10
2022-12-22T20:33:24.969Z,3.13
2022-12-22T20:35:53.485Z,3.06
2022-12-22T20:38:35.081Z,3.04
2022-12-22T20:41:03.049Z,3.04
2022-12-22T20:43:32.098Z,2.87
2022-12-22T20:46:23.664Z,2.85
2022-12-22T20:48:56.136Z,2.74
2022-12-22T20:51:26.572Z,2.62
2022-12-22T20:53:53.978Z,2.58
2022-12-22T20:56:22.230Z,2.54
2022-12-22T20:58:49.897Z,2.60
2022-12-22T21:01:17.369Z,2.65
2022-12-22T21:03:44.776Z,2.67
2022-12-22T21:06:22.917Z,2.60
2022-12-22T21:08:49.864Z,2.56
2022-12-22T21:11:16.974Z,2.60
2022-12-22T21:13:43.864Z,2.49
2022-12-22T21:16:17.338Z,2.42
2022-12-22T21:18:44.885Z,2.46
2022-12-22T21:21:12.547Z,2.47
2022-12-22T21:23:39.472Z,2.43
2022-12-22T21:26:16.701Z,2.34
2022-12-22T21:28:43.769Z,2.34
2022-12-22T21:31:10.726Z,2.26
2022-12-22T21:33:37.597Z,2.31
2022-12-22T21:36:05.020Z,2.30
2022-12-22T21:38:33.455Z,2.26
2022-12-22T21:41:00.393Z,2.22
2022-12-22T21:43:27.325Z,2.29
2022-12-22T21:45:54.249Z,2.29
2022-12-22T21:48:21.533Z,2.38
2022-12-22T21:50:50.372Z,2.30
2022-12-22T21:53:22.456Z,2.27
2022-12-22T21:55:50.281Z,2.25
2022-12-22T21:58:17.845Z,2.22
2022-12-22T22:00:48.559Z,2.17
2022-12-22T22:03:16.312Z,2.18
2022-12-22T22:05:43.456Z,2.15
2022-12-22T22:08:12.334Z,2.17
2022-12-22T22:10:42.362Z,2.09
2022-12-22T22:13:14.789Z,2.09
2022-12-22T22:15:41.770Z,2.07
2022-12-22T22:18:15.551Z,2.14
2022-12-22T22:20:42.428Z,2.05
2022-12-22T22:23:11.986Z,2.05
2022-12-22T22:25:39.077Z,2.00
2022-12-22T22:28:06.275Z,1.93
2022-12-22T22:30:33.077Z,1.90
2022-12-22T22:32:59.994Z,1.86
2022-12-22T22:35:27.554Z,1.84
2022-12-22T22:37:55.252Z,1.87
2022-12-22T22:40:23.212Z,1.86
2022-12-22T22:42:50.238Z,1.78
2022-12-22T22:45:23.460Z,1.75
2022-12-22T22:47:51.421Z,1.76
2022-12-22T22:50:19.999Z,1.70
2022-12-22T22:52:47.629Z,1.69
2022-12-22T22:55:15.039Z,1.80
2022-12-22T22:57:42.916Z,1.76
2022-12-22T23:00:13.063Z,1.74
2022-12-22T23:02:40.461Z,1.74
2022-12-22T23:05:07.871Z,1.75
2022-12-22T23:07:35.660Z,1.81
2022-12-22T23:10:03.255Z,1.80
2022-12-22T23:12:30.083Z,1.87
2022-12-22T23:14:57.011Z,1.90
2022-12-22T23:17:24.186Z,1.89
2022-12-22T23:19:50.994Z,1.84
2022-12-22T23:22:18.069Z,1.85
2022-12-22T23:24:45.296Z,1.78
2022-12-22T23:27:12.258Z,1.83
2022-12-22T23:29:39.528Z,1.86
2022-12-22T23:32:06.840Z,1.78
2022-12-22T23:34:33.762Z,1.75
2022-12-22T23:37:01.079Z,1.75
2022-12-22T23:39:28.188Z,1.79
2022-12-22T23:41:55.055Z,1.71
2022-12-22T23:44:21.999Z,1.72
2022-12-22T23:46:49.109Z,1.72
2022-12-22T23:49:16.235Z,1.67
2022-12-22T23:51:43.183Z,1.66
2022-12-22T23:54:10.100Z,1.64
2022-12-22T23:56:36.892Z,1.68
2022-12-22T23:59:03.775Z,1.65
